sensor_id;sensor_type;location;lat;lon;timestamp;pressure;altitude;pressure_sealevel;temperature;humidity
27980;BME280;15315;50.836;4.430;2023-02-26T00:04:23;101312.78;;;7.31;54.15
27980;BME280;15315;50.836;4.430;2023-02-26T00:14:24;101312.00;;;6.91;55.63
27980;BME280;15315;50.836;4.430;2023-02-26T00:24:24;101318.91;;;6.76;56.59
27980;BME280;15315;50.836;4.430;2023-02-26T00:34:25;101321.06;;;6.68;57.46
27980;BME280;15315;50.836;4.430;2023-02-26T00:44:26;101336.41;;;6.64;57.07
27980;BME280;15315;50.836;4.430;2023-02-26T00:54:28;101327.19;;;6.51;57.32
27980;BME280;15315;50.836;4.430;2023-02-26T01:04:31;101337.13;;;6.28;58.64
27980;BME280;15315;50.836;4.430;2023-02-26T01:14:32;101353.41;;;6.63;57.74
27980;BME280;15315;50.836;4.430;2023-02-26T01:24:35;101336.97;;;6.52;58.50
27980;BME280;15315;50.836;4.430;2023-02-26T01:34:59;101351.38;;;6.50;58.36
27980;BME280;15315;50.836;4.430;2023-02-26T01:45:13;101350.47;;;6.49;58.49
27980;BME280;15315;50.836;4.430;2023-02-26T01:55:19;101357.69;;;6.05;60.24
27980;BME280;15315;50.836;4.430;2023-02-26T02:05:46;101362.06;;;6.50;59.33
27980;BME280;15315;50.836;4.430;2023-02-26T02:46:39;101385.22;;;5.64;62.33
27980;BME280;15315;50.836;4.430;2023-02-26T02:56:47;101391.63;;;5.83;61.92
27980;BME280;15315;50.836;4.430;2023-02-26T03:06:48;101390.38;;;5.69;62.26
27980;BME280;15315;50.836;4.430;2023-02-26T03:37:39;101423.34;;;4.22;67.32
27980;BME280;15315;50.836;4.430;2023-02-26T03:47:43;101441.03;;;4.53;67.79
27980;BME280;15315;50.836;4.430;2023-02-26T03:57:45;101446.56;;;3.91;68.13
27980;BME280;15315;50.836;4.430;2023-02-26T04:07:46;101460.97;;;3.86;68.40
27980;BME280;15315;50.836;4.430;2023-02-26T04:17:47;101486.13;;;3.46;71.76
27980;BME280;15315;50.836;4.430;2023-02-26T04:27:47;101496.59;;;3.83;69.57
27980;BME280;15315;50.836;4.430;2023-02-26T04:37:48;101513.03;;;3.99;69.15
27980;BME280;15315;50.836;4.430;2023-02-26T04:47:48;101518.03;;;3.80;68.67
27980;BME280;15315;50.836;4.430;2023-02-26T04:57:48;101521.19;;;3.93;67.47
27980;BME280;15315;50.836;4.430;2023-02-26T05:07:49;101534.53;;;3.31;68.40
27980;BME280;15315;50.836;4.430;2023-02-26T05:17:52;101546.13;;;3.30;68.05
27980;BME280;15315;50.836;4.430;2023-02-26T05:27:53;101556.63;;;3.67;66.82
27980;BME280;15315;50.836;4.430;2023-02-26T05:37:53;101564.56;;;3.38;67.93
27980;BME280;15315;50.836;4.430;2023-02-26T05:47:53;101576.97;;;3.39;67.61
27980;BME280;15315;50.836;4.430;2023-02-26T05:57:54;101595.34;;;3.16;69.47
27980;BME280;15315;50.836;4.430;2023-02-26T06:07:54;101606.44;;;2.99;69.42
27980;BME280;15315;50.836;4.430;2023-02-26T06:17:54;101627.66;;;3.37;68.24
27980;BME280;15315;50.836;4.430;2023-02-26T06:27:55;101645.75;;;2.51;69.13
27980;BME280;15315;50.836;4.430;2023-02-26T06:37:56;101653.22;;;3.44;67.77
27980;BME280;15315;50.836;4.430;2023-02-26T06:47:56;101655.13;;;3.41;66.37
27980;BME280;15315;50.836;4.430;2023-02-26T06:57:57;101676.69;;;2.55;69.08
27980;BME280;15315;50.836;4.430;2023-02-26T07:07:57;101684.03;;;3.21;66.07
27980;BME280;15315;50.836;4.430;2023-02-26T07:17:58;101700.88;;;3.23;66.20
27980;BME280;15315;50.836;4.430;2023-02-26T07:27:59;101713.88;;;3.00;64.69
27980;BME280;15315;50.836;4.430;2023-02-26T07:37:59;101727.97;;;3.40;63.34
27980;BME280;15315;50.836;4.430;2023-02-26T07:48:00;101745.06;;;2.93;63.49
27980;BME280;15315;50.836;4.430;2023-02-26T07:58:00;101764.41;;;3.03;63.01
27980;BME280;15315;50.836;4.430;2023-02-26T08:08:01;101782.22;;;2.99;63.44
27980;BME280;15315;50.836;4.430;2023-02-26T08:18:02;101773.16;;;3.80;62.04
27980;BME280;15315;50.836;4.430;2023-02-26T08:28:02;101784.16;;;3.68;61.92
27980;BME280;15315;50.836;4.430;2023-02-26T08:38:07;101804.88;;;3.18;62.24
27980;BME280;15315;50.836;4.430;2023-02-26T08:48:08;101812.47;;;3.72;61.92
27980;BME280;15315;50.836;4.430;2023-02-26T08:58:10;101826.59;;;3.77;60.36
27980;BME280;15315;50.836;4.430;2023-02-26T09:08:16;101849.72;;;4.77;58.75
27980;BME280;15315;50.836;4.430;2023-02-26T09:18:16;101859.78;;;4.00;58.47
27980;BME280;15315;50.836;4.430;2023-02-26T09:28:17;101856.91;;;4.08;58.17
27980;BME280;15315;50.836;4.430;2023-02-26T09:38:17;101876.25;;;4.53;57.61
27980;BME280;15315;50.836;4.430;2023-02-26T09:48:20;101874.09;;;4.33;56.93
27980;BME280;15315;50.836;4.430;2023-02-26T09:58:27;101888.44;;;4.61;57.02
27980;BME280;15315;50.836;4.430;2023-02-26T10:08:35;101898.09;;;4.68;55.64
27980;BME280;15315;50.836;4.430;2023-02-26T10:18:50;101903.41;;;5.01;54.27
27980;BME280;15315;50.836;4.430;2023-02-26T10:39:37;101941.78;;;4.64;51.90
27980;BME280;15315;50.836;4.430;2023-02-26T10:49:53;101945.13;;;4.40;52.13
27980;BME280;15315;50.836;4.430;2023-02-26T10:59:54;101935.25;;;4.76;50.87
27980;BME280;15315;50.836;4.430;2023-02-26T11:09:54;101956.47;;;5.14;48.03
27980;BME280;15315;50.836;4.430;2023-02-26T11:19:58;101962.25;;;5.61;47.05
27980;BME280;15315;50.836;4.430;2023-02-26T11:30:13;101965.06;;;4.61;48.85
27980;BME280;15315;50.836;4.430;2023-02-26T11:40:21;101957.00;;;4.95;48.64
27980;BME280;15315;50.836;4.430;2023-02-26T11:50:22;101945.53;;;5.53;47.50
27980;BME280;15315;50.836;4.430;2023-02-26T12:00:35;101955.47;;;5.77;46.85
27980;BME280;15315;50.836;4.430;2023-02-26T12:10:58;101942.56;;;5.02;46.57
27980;BME280;15315;50.836;4.430;2023-02-26T13:02:48;101959.97;;;6.59;44.77
27980;BME280;15315;50.836;4.430;2023-02-26T13:23:36;101965.25;;;6.87;43.51
27980;BME280;15315;50.836;4.430;2023-02-26T13:33:40;101937.63;;;7.33;43.23
27980;BME280;15315;50.836;4.430;2023-02-26T13:54:32;101943.59;;;6.42;41.79
27980;BME280;15315;50.836;4.430;2023-02-26T14:04:50;101949.28;;;6.04;42.44
27980;BME280;15315;50.836;4.430;2023-02-26T14:35:42;101957.19;;;6.62;41.36
27980;BME280;15315;50.836;4.430;2023-02-26T14:45:44;101959.91;;;6.35;41.19
27980;BME280;15315;50.836;4.430;2023-02-26T15:16:37;101973.44;;;5.73;42.57
27980;BME280;15315;50.836;4.430;2023-02-26T15:26:52;101967.97;;;6.05;42.47
27980;BME280;15315;50.836;4.430;2023-02-26T15:36:55;101974.59;;;6.76;42.29
27980;BME280;15315;50.836;4.430;2023-02-26T15:47:01;101973.47;;;6.56;42.41
27980;BME280;15315;50.836;4.430;2023-02-26T15:57:02;101974.78;;;6.43;42.87
27980;BME280;15315;50.836;4.430;2023-02-26T16:07:02;101993.72;;;6.65;43.41
27980;BME280;15315;50.836;4.430;2023-02-26T16:17:05;101989.81;;;6.75;42.59
27980;BME280;15315;50.836;4.430;2023-02-26T16:27:11;101991.31;;;6.57;43.73
27980;BME280;15315;50.836;4.430;2023-02-26T16:37:33;101983.84;;;6.65;44.00
27980;BME280;15315;50.836;4.430;2023-02-26T16:47:35;101999.66;;;6.99;44.05
27980;BME280;15315;50.836;4.430;2023-02-26T16:57:40;102007.75;;;6.73;44.15
27980;BME280;15315;50.836;4.430;2023-02-26T17:08:05;102009.69;;;6.40;44.92
27980;BME280;15315;50.836;4.430;2023-02-26T17:18:10;102012.72;;;6.84;44.84
27980;BME280;15315;50.836;4.430;2023-02-26T17:28:22;102019.75;;;7.37;44.51
27980;BME280;15315;50.836;4.430;2023-02-26T17:38:23;102036.31;;;6.99;44.96
27980;BME280;15315;50.836;4.430;2023-02-26T17:48:24;102044.13;;;7.06;45.63
27980;BME280;15315;50.836;4.430;2023-02-26T17:58:46;102056.28;;;6.90;45.70
27980;BME280;15315;50.836;4.430;2023-02-26T18:08:48;102081.41;;;6.60;46.69
27980;BME280;15315;50.836;4.430;2023-02-26T18:18:49;102087.47;;;6.93;46.38
27980;BME280;15315;50.836;4.430;2023-02-26T18:28:50;102084.81;;;7.17;46.33
27980;BME280;15315;50.836;4.430;2023-02-26T18:38:50;102089.69;;;6.80;46.66
27980;BME280;15315;50.836;4.430;2023-02-26T18:48:51;102095.34;;;6.14;47.69
27980;BME280;15315;50.836;4.430;2023-02-26T18:58:52;102095.97;;;6.22;48.21
27980;BME280;15315;50.836;4.430;2023-02-26T19:08:52;102094.59;;;6.09;48.16
27980;BME280;15315;50.836;4.430;2023-02-26T19:18:52;102096.75;;;5.96;48.91
27980;BME280;15315;50.836;4.430;2023-02-26T19:28:53;102101.09;;;6.30;47.70
27980;BME280;15315;50.836;4.430;2023-02-26T19:38:54;102103.09;;;5.92;48.45
27980;BME280;15315;50.836;4.430;2023-02-26T19:48:55;102116.00;;;6.09;48.73
27980;BME280;15315;50.836;4.430;2023-02-26T19:58:55;102123.31;;;6.02;49.07
27980;BME280;15315;50.836;4.430;2023-02-26T20:08:56;102128.94;;;5.93;49.19
27980;BME280;15315;50.836;4.430;2023-02-26T20:18:56;102139.66;;;5.61;49.69
27980;BME280;15315;50.836;4.430;2023-02-26T20:28:57;102156.09;;;5.46;50.54
27980;BME280;15315;50.836;4.430;2023-02-26T20:38:58;102160.94;;;4.97;51.93
27980;BME280;15315;50.836;4.430;2023-02-26T20:49:01;102165.06;;;5.10;52.78
27980;BME280;15315;50.836;4.430;2023-02-26T20:59:03;102177.03;;;4.55;54.34
27980;BME280;15315;50.836;4.430;2023-02-26T21:09:04;102173.44;;;4.56;56.28
27980;BME280;15315;50.836;4.430;2023-02-26T21:19:04;102180.63;;;4.93;55.87
27980;BME280;15315;50.836;4.430;2023-02-26T21:29:05;102192.06;;;4.16;58.23
27980;BME280;15315;50.836;4.430;2023-02-26T21:39:05;102197.88;;;4.38;58.98
27980;BME280;15315;50.836;4.430;2023-02-26T21:49:06;102193.97;;;4.54;59.07
27980;BME280;15315;50.836;4.430;2023-02-26T21:59:06;102192.75;;;4.26;60.73
27980;BME280;15315;50.836;4.430;2023-02-26T22:09:07;102192.84;;;3.79;62.48
27980;BME280;15315;50.836;4.430;2023-02-26T22:19:07;102196.88;;;3.99;61.94
27980;BME280;15315;50.836;4.430;2023-02-26T22:29:07;102203.03;;;4.47;61.63
27980;BME280;15315;50.836;4.430;2023-02-26T22:39:09;102209.50;;;4.36;62.46
27980;BME280;15315;50.836;4.430;2023-02-26T22:49:12;102212.09;;;4.40;63.00
27980;BME280;15315;50.836;4.430;2023-02-26T22:59:12;102217.28;;;4.02;63.00
27980;BME280;15315;50.836;4.430;2023-02-26T23:09:12;102221.00;;;3.93;64.67
27980;BME280;15315;50.836;4.430;2023-02-26T23:19:13;102219.78;;;3.62;66.44
27980;BME280;15315;50.836;4.430;2023-02-26T23:29:13;102223.47;;;4.04;65.42
27980;BME280;15315;50.836;4.430;2023-02-26T23:39:17;102233.69;;;3.81;66.41
27980;BME280;15315;50.836;4.430;2023-02-26T23:49:17;102223.06;;;4.23;65.25
27980;BME280;15315;50.836;4.430;2023-02-26T23:59:18;102233.47;;;3.42;66.75
